< < Back
Terminal Aerodrome Forecast


Current Version              Previous Versions:   1  2  3  4  5  6  7  8  9  

Terminal Aerodrome Forecast

889
FTUS42 KCAE 210500
TAFCAE
TAF
KCAE 210520Z 2106/2206 VRB03KT P6SM SCT100 SCT250
     FM211500 28007KT P6SM SKC=



Latest METAR

728
SAUS80 KWBC 211200
MTRCAE
METAR KCAE 211156Z 23003KT 10SM CLR 10/08 A2996 RMK AO2 SLP145 T01000078
10128 20100 53005


USA.gov is the U.S. government's official web portal to all federal, state and local government web resources and services.